Time;durP1;ratioP1;P1;durP2;ratioP2;P2;SDS_P1;SDS_P2;PMS_P1;PMS_P2;Temp;Humidity;BMP_temperature;BMP_pressure;BME280_temperature;BME280_humidity;BME280_pressure;Samples;Min_cycle;Max_cycle;Signal;HPM_P1;HPM_P2
2023/01/17 00:02:14;;;;;;;3.05;0.90;;;;;;;;;;5028046;27;99793;-72
2023/01/17 00:10:13;;;;;;;2.63;1.10;;;;;;;;;;5016484;27;99944;-73
2023/01/17 00:12:45;;;;;;;13.82;1.67;;;;;;;;;;5017465;28;100761;-74
2023/01/17 00:15:11;;;;;;;8.20;1.20;;;;;;;;;;5029733;28;100626;-74
2023/01/17 00:17:37;;;;;;;8.18;1.30;;;;;;;;;;5024599;28;98452;-72
2023/01/17 01:35:24;;;;;;;3.50;1.20;;;;;;;;;;5010574;27;98350;-77
2023/01/17 01:37:51;;;;;;;6.50;1.13;;;;;;;;;;5025232;27;99533;-76
2023/01/17 01:40:18;;;;;;;6.22;1.25;;;;;;;;;;5019927;28;100213;-75
2023/01/17 01:43:04;;;;;;;2.50;1.05;;;;;;;;;;5027677;27;98519;-77
2023/01/17 01:45:31;;;;;;;5.05;1.27;;;;;;;;;;5029681;27;99556;-76
2023/01/17 01:48:02;;;;;;;2.80;1.13;;;;;;;;;;5030601;27;99702;-75
2023/01/17 01:50:30;;;;;;;3.80;1.52;;;;;;;;;;5034881;28;98522;-76
2023/01/17 01:52:58;;;;;;;2.78;0.88;;;;;;;;;;5031276;27;99501;-77
2023/01/17 01:55:27;;;;;;;5.68;1.05;;;;;;;;;;5029156;28;98621;-76
2023/01/17 01:57:56;;;;;;;3.05;1.10;;;;;;;;;;5031921;27;99443;-76
2023/01/17 02:00:25;;;;;;;2.92;1.33;;;;;;;;;;5028988;27;99775;-76
2023/01/17 02:02:54;;;;;;;2.63;1.00;;;;;;;;;;5031713;28;98257;-76
2023/01/17 02:05:22;;;;;;;3.13;0.75;;;;;;;;;;5035380;27;99408;-76
2023/01/17 02:08:01;;;;;;;5.32;1.20;;;;;;;;;;5030109;27;99125;-75
2023/01/17 02:10:29;;;;;;;2.90;1.25;;;;;;;;;;5030457;28;98286;-76
2023/01/17 02:12:56;;;;;;;3.22;1.52;;;;;;;;;;5034600;28;99526;-76
2023/01/17 02:15:28;;;;;;;1.17;1.05;;;;;;;;;;5025232;27;98393;-77
2023/01/17 02:18:00;;;;;;;6.47;0.90;;;;;;;;;;5030556;28;99470;-75
2023/01/17 02:20:30;;;;;;;5.63;1.10;;;;;;;;;;5029283;27;101599;-75
2023/01/17 02:23:02;;;;;;;6.13;1.20;;;;;;;;;;5031270;27;98327;-76
2023/01/17 02:25:31;;;;;;;1.75;0.90;;;;;;;;;;5029331;28;99382;-75
2023/01/17 02:28:16;;;;;;;0.60;0.60;;;;;;;;;;5025123;27;99083;-75
2023/01/17 02:30:53;;;;;;;2.53;1.20;;;;;;;;;;5023843;28;99611;-76
2023/01/17 02:33:38;;;;;;;2.50;1.27;;;;;;;;;;5020874;28;99492;-76
2023/01/17 02:36:25;;;;;;;9.85;1.58;;;;;;;;;;5012170;28;99475;-76
2023/01/17 02:38:56;;;;;;;5.40;1.95;;;;;;;;;;5024829;27;100852;-76
2023/01/17 02:41:28;;;;;;;6.95;2.30;;;;;;;;;;5024492;28;100187;-75
2023/01/17 02:43:55;;;;;;;1.80;1.25;;;;;;;;;;5023856;27;98479;-76
2023/01/17 02:46:21;;;;;;;1.52;1.20;;;;;;;;;;5030374;28;99460;-75
2023/01/17 02:48:48;;;;;;;5.75;1.15;;;;;;;;;;5029146;28;99954;-76
2023/01/17 02:51:14;;;;;;;5.38;1.42;;;;;;;;;;5030006;28;98267;-76
2023/01/17 02:53:46;;;;;;;3.90;1.27;;;;;;;;;;5030549;27;99026;-75
2023/01/17 02:56:21;;;;;;;4.40;2.55;;;;;;;;;;5025958;27;99509;-75
2023/01/17 02:59:03;;;;;;;9.20;1.50;;;;;;;;;;5030423;27;98618;-76
2023/01/17 03:01:35;;;;;;;1.75;1.60;;;;;;;;;;5028458;28;100137;-75
2023/01/17 03:04:04;;;;;;;2.65;1.20;;;;;;;;;;5030614;27;98726;-75
2023/01/17 03:06:34;;;;;;;4.53;1.50;;;;;;;;;;5030372;27;98691;-75
2023/01/17 03:09:01;;;;;;;10.65;1.88;;;;;;;;;;5013780;28;100225;-75
2023/01/17 03:11:27;;;;;;;16.63;1.50;;;;;;;;;;5029058;28;98245;-76
2023/01/17 03:13:55;;;;;;;3.92;1.40;;;;;;;;;;5031380;27;99716;-76
2023/01/17 03:16:22;;;;;;;10.35;1.58;;;;;;;;;;5029880;28;99472;-75
2023/01/17 03:18:49;;;;;;;4.25;1.30;;;;;;;;;;5033097;27;98280;-75
2023/01/17 03:21:15;;;;;;;8.30;1.45;;;;;;;;;;5028324;27;100163;-75
2023/01/17 03:23:41;;;;;;;2.63;1.38;;;;;;;;;;5030247;27;98247;-75
2023/01/17 03:26:08;;;;;;;7.55;1.20;;;;;;;;;;5028111;27;99376;-75
2023/01/17 03:28:34;;;;;;;7.00;1.52;;;;;;;;;;5022666;27;98965;-74
2023/01/17 03:31:00;;;;;;;5.72;1.48;;;;;;;;;;5022746;27;98977;-75
2023/01/17 03:33:27;;;;;;;7.72;1.73;;;;;;;;;;5014673;27;98498;-75
2023/01/17 03:35:56;;;;;;;2.17;1.20;;;;;;;;;;5026564;28;100012;-75
2023/01/17 03:38:24;;;;;;;6.45;1.27;;;;;;;;;;5027468;27;98480;-74
2023/01/17 03:40:50;;;;;;;2.83;0.90;;;;;;;;;;5029392;28;99402;-74
2023/01/17 03:43:16;;;;;;;4.15;1.20;;;;;;;;;;5026900;27;98299;-74
2023/01/17 03:45:43;;;;;;;7.47;1.58;;;;;;;;;;5018714;28;99039;-75
2023/01/17 03:48:10;;;;;;;1.88;1.00;;;;;;;;;;5025095;27;99876;-75
2023/01/17 03:50:36;;;;;;;3.88;1.33;;;;;;;;;;5023236;28;98279;-75
2023/01/17 03:53:03;;;;;;;9.00;1.10;;;;;;;;;;5026342;27;99079;-74
2023/01/17 03:55:29;;;;;;;3.00;1.20;;;;;;;;;;5016001;27;100376;-75
2023/01/17 03:57:55;;;;;;;4.13;1.17;;;;;;;;;;5027627;28;98820;-74
2023/01/17 04:00:22;;;;;;;2.63;1.13;;;;;;;;;;5027446;27;99482;-74
2023/01/17 04:02:48;;;;;;;8.25;1.23;;;;;;;;;;5014467;27;99989;-74
2023/01/17 04:05:15;;;;;;;4.70;1.40;;;;;;;;;;5027961;27;99358;-75
2023/01/17 04:07:42;;;;;;;5.78;1.13;;;;;;;;;;5016514;28;99912;-74
2023/01/17 04:10:09;;;;;;;7.13;1.13;;;;;;;;;;5020297;28;98289;-74
2023/01/17 04:12:35;;;;;;;5.47;1.27;;;;;;;;;;5022175;27;98472;-75
2023/01/17 04:15:02;;;;;;;8.25;1.58;;;;;;;;;;5021654;28;100109;-75
2023/01/17 04:17:28;;;;;;;4.95;1.13;;;;;;;;;;5024306;27;98311;-76
2023/01/17 04:19:55;;;;;;;4.80;1.63;;;;;;;;;;5024977;28;99602;-75
2023/01/17 04:22:21;;;;;;;5.38;1.40;;;;;;;;;;5021057;27;99904;-75
2023/01/17 04:24:49;;;;;;;4.63;1.60;;;;;;;;;;5029228;27;98522;-75
2023/01/17 04:27:16;;;;;;;11.25;2.03;;;;;;;;;;5027478;27;99900;-74
2023/01/17 04:29:43;;;;;;;9.18;1.65;;;;;;;;;;5028770;28;98295;-74
2023/01/17 04:32:11;;;;;;;9.13;1.70;;;;;;;;;;5022809;27;99496;-75
2023/01/17 04:34:38;;;;;;;6.43;1.80;;;;;;;;;;5027703;27;99894;-75
2023/01/17 04:37:04;;;;;;;11.25;2.33;;;;;;;;;;5020491;27;99032;-75
2023/01/17 04:39:31;;;;;;;5.70;2.00;;;;;;;;;;5014366;28;99673;-75
2023/01/17 04:41:57;;;;;;;16.73;2.85;;;;;;;;;;5027925;28;98979;-75
2023/01/17 04:44:24;;;;;;;9.93;2.03;;;;;;;;;;5028357;28;98465;-75
2023/01/17 04:46:50;;;;;;;8.63;1.40;;;;;;;;;;5027190;28;99957;-74
2023/01/17 04:49:16;;;;;;;8.70;2.38;;;;;;;;;;5025647;27;98732;-74
2023/01/17 04:51:43;;;;;;;9.27;1.98;;;;;;;;;;5026374;28;99727;-74
2023/01/17 04:54:09;;;;;;;11.07;1.55;;;;;;;;;;5028072;27;100332;-74
2023/01/17 04:56:36;;;;;;;6.28;2.00;;;;;;;;;;5026727;28;98915;-74
2023/01/17 04:59:02;;;;;;;11.10;1.90;;;;;;;;;;5026365;28;99445;-74
2023/01/17 05:01:28;;;;;;;5.32;1.23;;;;;;;;;;5026967;28;100401;-75
2023/01/17 05:03:55;;;;;;;8.68;1.70;;;;;;;;;;5026572;27;98331;-75
2023/01/17 05:06:21;;;;;;;10.95;2.38;;;;;;;;;;5024489;27;98692;-74
2023/01/17 05:08:48;;;;;;;7.28;1.95;;;;;;;;;;5026880;28;98283;-74
2023/01/17 05:11:14;;;;;;;3.70;1.70;;;;;;;;;;5025925;27;99309;-75
2023/01/17 05:13:40;;;;;;;6.07;1.45;;;;;;;;;;5026375;28;100616;-75
2023/01/17 05:16:07;;;;;;;9.63;1.80;;;;;;;;;;5026869;27;98387;-74
2023/01/17 05:18:33;;;;;;;4.55;1.48;;;;;;;;;;5018480;27;98823;-74
2023/01/17 05:21:02;;;;;;;5.95;1.52;;;;;;;;;;5008143;27;98211;-74
2023/01/17 05:23:29;;;;;;;7.53;1.52;;;;;;;;;;5011094;28;98723;-75
2023/01/17 05:25:55;;;;;;;4.53;1.40;;;;;;;;;;5025230;28;99348;-74
2023/01/17 05:28:23;;;;;;;7.90;2.40;;;;;;;;;;5028222;27;99992;-74
2023/01/17 05:30:49;;;;;;;4.68;1.50;;;;;;;;;;5022023;27;99350;-74
2023/01/17 05:33:15;;;;;;;8.75;3.25;;;;;;;;;;5025819;27;100062;-75
2023/01/17 05:35:42;;;;;;;3.70;1.58;;;;;;;;;;5027167;28;98572;-75
2023/01/17 05:38:08;;;;;;;6.00;1.45;;;;;;;;;;5024966;27;98946;-76
2023/01/17 05:40:34;;;;;;;4.20;1.50;;;;;;;;;;5025688;27;99277;-75
2023/01/17 05:43:02;;;;;;;10.52;1.67;;;;;;;;;;5025987;28;98510;-75
2023/01/17 05:45:30;;;;;;;2.28;1.33;;;;;;;;;;5024158;27;99412;-75
2023/01/17 05:47:57;;;;;;;9.07;1.60;;;;;;;;;;5021803;28;99057;-74
2023/01/17 05:50:28;;;;;;;6.97;1.70;;;;;;;;;;5028757;27;98311;-75
2023/01/17 05:52:58;;;;;;;6.53;1.70;;;;;;;;;;5026547;28;100186;-76
2023/01/17 05:55:25;;;;;;;10.02;1.38;;;;;;;;;;5031123;28;98145;-75
2023/01/17 05:57:52;;;;;;;6.72;1.85;;;;;;;;;;5029776;27;98705;-74
2023/01/17 06:00:19;;;;;;;6.30;2.20;;;;;;;;;;5025066;28;100019;-75
2023/01/17 06:02:45;;;;;;;6.03;1.70;;;;;;;;;;5018692;27;98390;-75
2023/01/17 06:05:12;;;;;;;4.50;1.75;;;;;;;;;;5018667;27;99365;-74
2023/01/17 06:07:41;;;;;;;5.72;1.50;;;;;;;;;;5025674;28;99952;-74
2023/01/17 06:10:09;;;;;;;7.82;2.60;;;;;;;;;;5025995;27;100044;-74
2023/01/17 06:12:36;;;;;;;11.52;2.67;;;;;;;;;;5013474;28;99434;-74
2023/01/17 06:15:02;;;;;;;6.63;2.15;;;;;;;;;;5023426;28;99862;-74
2023/01/17 06:17:29;;;;;;;3.05;2.05;;;;;;;;;;5024995;28;99926;-74
2023/01/17 06:19:55;;;;;;;10.10;2.30;;;;;;;;;;5023268;27;99257;-73
2023/01/17 06:22:21;;;;;;;7.65;1.88;;;;;;;;;;5022806;28;99832;-74
2023/01/17 06:24:48;;;;;;;10.65;2.05;;;;;;;;;;5021597;27;98527;-74
2023/01/17 06:27:14;;;;;;;6.68;2.15;;;;;;;;;;5017249;28;100356;-74
2023/01/17 06:29:40;;;;;;;6.75;1.50;;;;;;;;;;5026577;27;98639;-74
2023/01/17 06:32:07;;;;;;;7.57;1.52;;;;;;;;;;5028765;28;99368;-74
2023/01/17 06:34:33;;;;;;;9.43;1.70;;;;;;;;;;5032063;27;98396;-74
2023/01/17 06:36:59;;;;;;;7.43;2.47;;;;;;;;;;5022930;27;98721;-74
2023/01/17 06:39:26;;;;;;;18.90;2.78;;;;;;;;;;5017058;28;99967;-75
2023/01/17 06:41:52;;;;;;;9.07;2.92;;;;;;;;;;5027085;28;98422;-74
2023/01/17 06:44:19;;;;;;;9.88;2.53;;;;;;;;;;5026610;28;99470;-75
2023/01/17 06:46:46;;;;;;;9.65;2.60;;;;;;;;;;5014781;28;99357;-74
2023/01/17 06:49:13;;;;;;;7.40;2.80;;;;;;;;;;5009108;28;98332;-74
2023/01/17 06:51:39;;;;;;;6.70;3.13;;;;;;;;;;5026184;28;98650;-74
2023/01/17 06:54:08;;;;;;;12.38;4.22;;;;;;;;;;5029332;27;100407;-74
2023/01/17 06:56:35;;;;;;;4.22;3.83;;;;;;;;;;5025587;28;99475;-73
2023/01/17 06:59:02;;;;;;;7.95;4.30;;;;;;;;;;5027523;27;100192;-73
2023/01/17 07:01:29;;;;;;;7.38;3.42;;;;;;;;;;5028872;28;98260;-73
2023/01/17 07:03:56;;;;;;;8.32;4.53;;;;;;;;;;5023397;27;100715;-74
2023/01/17 07:06:27;;;;;;;9.27;4.88;;;;;;;;;;5018976;27;99140;-74
2023/01/17 07:08:54;;;;;;;12.45;5.25;;;;;;;;;;5027213;28;98267;-74
2023/01/17 07:11:21;;;;;;;13.45;4.90;;;;;;;;;;5023126;27;99738;-74
2023/01/17 07:13:47;;;;;;;16.33;6.40;;;;;;;;;;5021398;28;100035;-74
2023/01/17 07:16:14;;;;;;;11.13;5.82;;;;;;;;;;5024578;28;98449;-74
2023/01/17 07:18:40;;;;;;;15.30;5.43;;;;;;;;;;5027230;27;98929;-74
2023/01/17 07:21:13;;;;;;;11.65;5.65;;;;;;;;;;5027459;27;98291;-75
2023/01/17 07:23:40;;;;;;;24.52;6.53;;;;;;;;;;5023724;28;99493;-75
2023/01/17 07:26:06;;;;;;;15.77;6.65;;;;;;;;;;5019752;27;99319;-75
2023/01/17 07:28:33;;;;;;;14.88;6.38;;;;;;;;;;5022610;28;98231;-75
2023/01/17 07:31:03;;;;;;;9.82;6.55;;;;;;;;;;5026753;28;99513;-74
2023/01/17 07:33:29;;;;;;;15.73;6.80;;;;;;;;;;5019380;28;100226;-75
2023/01/17 07:35:56;;;;;;;11.05;6.95;;;;;;;;;;5015362;27;98861;-75
2023/01/17 07:38:22;;;;;;;10.13;6.10;;;;;;;;;;5027241;28;99379;-74
2023/01/17 07:40:48;;;;;;;15.77;6.55;;;;;;;;;;5015056;27;98349;-74
2023/01/17 07:43:15;;;;;;;34.40;6.72;;;;;;;;;;5022534;28;99411;-74
2023/01/17 07:45:43;;;;;;;12.38;6.13;;;;;;;;;;5028375;27;99018;-75
2023/01/17 07:48:10;;;;;;;15.27;6.50;;;;;;;;;;5016738;27;98377;-75
2023/01/17 07:50:36;;;;;;;9.63;6.15;;;;;;;;;;5020323;27;100255;-74
2023/01/17 07:53:03;;;;;;;14.65;6.03;;;;;;;;;;5010912;27;99039;-74
2023/01/17 07:55:30;;;;;;;14.65;6.65;;;;;;;;;;5024593;28;98293;-74
2023/01/17 07:57:56;;;;;;;13.30;5.82;;;;;;;;;;5014123;28;99970;-74
2023/01/17 08:00:26;;;;;;;6.65;5.55;;;;;;;;;;5018700;28;99169;-75
2023/01/17 08:02:56;;;;;;;16.77;6.53;;;;;;;;;;5030811;27;98849;-74
2023/01/17 08:05:22;;;;;;;12.77;6.07;;;;;;;;;;5018746;28;101474;-75
2023/01/17 08:07:49;;;;;;;6.45;5.25;;;;;;;;;;5022886;27;98958;-76
2023/01/17 08:10:16;;;;;;;19.08;5.57;;;;;;;;;;5022708;27;99868;-75
2023/01/17 08:12:46;;;;;;;11.35;4.80;;;;;;;;;;5022403;27;99586;-75
2023/01/17 08:15:13;;;;;;;9.57;4.60;;;;;;;;;;5016129;27;98554;-76
2023/01/17 08:17:44;;;;;;;8.80;5.53;;;;;;;;;;5017653;27;99886;-76
2023/01/17 08:20:10;;;;;;;11.55;4.63;;;;;;;;;;5027709;27;100120;-76
2023/01/17 08:22:36;;;;;;;9.60;4.38;;;;;;;;;;5022565;27;98266;-76
2023/01/17 08:25:03;;;;;;;9.00;4.45;;;;;;;;;;5019624;27;99149;-76
2023/01/17 08:27:29;;;;;;;6.88;4.68;;;;;;;;;;5022492;27;98398;-76
2023/01/17 08:29:56;;;;;;;17.35;4.70;;;;;;;;;;5014922;27;100323;-76
2023/01/17 08:32:22;;;;;;;10.77;4.70;;;;;;;;;;5015816;27;99162;-76
2023/01/17 08:34:49;;;;;;;11.57;4.78;;;;;;;;;;5029429;27;99780;-76
2023/01/17 08:37:15;;;;;;;12.10;5.00;;;;;;;;;;5033458;27;99308;-76
2023/01/17 08:39:41;;;;;;;14.38;4.90;;;;;;;;;;5028244;27;100025;-77
2023/01/17 08:42:07;;;;;;;16.98;4.20;;;;;;;;;;5039246;27;98281;-77
2023/01/17 08:44:34;;;;;;;9.57;3.60;;;;;;;;;;5049083;27;99064;-76
2023/01/17 08:47:00;;;;;;;8.10;3.70;;;;;;;;;;5020921;27;98171;-77
2023/01/17 08:49:27;;;;;;;11.07;3.22;;;;;;;;;;5024460;27;99390;-77
2023/01/17 08:51:56;;;;;;;11.13;3.42;;;;;;;;;;5015555;27;100355;-76
2023/01/17 08:54:22;;;;;;;14.05;3.20;;;;;;;;;;5020053;27;98404;-80
2023/01/17 08:56:49;;;;;;;11.73;3.88;;;;;;;;;;5017404;27;100155;-77
2023/01/17 08:59:15;;;;;;;7.55;3.60;;;;;;;;;;5024566;27;100095;-77
2023/01/17 09:01:44;;;;;;;8.93;3.47;;;;;;;;;;5023196;27;98319;-77
2023/01/17 09:04:11;;;;;;;8.88;3.45;;;;;;;;;;5023155;27;99820;-78
2023/01/17 09:06:39;;;;;;;11.40;3.13;;;;;;;;;;5023804;27;98383;-77
2023/01/17 09:09:06;;;;;;;8.63;2.92;;;;;;;;;;5014751;27;101265;-77
2023/01/17 09:11:32;;;;;;;13.00;2.65;;;;;;;;;;5032339;27;99452;-77
2023/01/17 09:14:00;;;;;;;10.00;2.70;;;;;;;;;;5022135;27;98305;-77
2023/01/17 09:16:27;;;;;;;9.15;3.10;;;;;;;;;;5014393;27;98651;-77
2023/01/17 09:18:54;;;;;;;8.85;2.90;;;;;;;;;;5024844;27;99114;-77
2023/01/17 09:21:21;;;;;;;12.50;3.35;;;;;;;;;;5029599;27;98870;-77
2023/01/17 09:23:47;;;;;;;9.25;2.40;;;;;;;;;;5021355;27;99900;-77
2023/01/17 09:26:19;;;;;;;6.43;2.97;;;;;;;;;;5028202;27;99864;-76
2023/01/17 09:28:45;;;;;;;9.23;3.10;;;;;;;;;;5022318;27;99473;-77
2023/01/17 09:31:12;;;;;;;6.82;2.80;;;;;;;;;;5023924;27;99664;-77
2023/01/17 09:33:41;;;;;;;4.10;2.35;;;;;;;;;;5021151;27;99478;-77
2023/01/17 09:36:08;;;;;;;7.00;2.40;;;;;;;;;;5028386;27;100001;-78
2023/01/17 09:38:35;;;;;;;5.50;2.25;;;;;;;;;;5023481;27;100005;-77
2023/01/17 09:41:02;;;;;;;2.92;2.20;;;;;;;;;;5026310;27;98317;-77
2023/01/17 09:43:44;;;;;;;6.95;2.58;;;;;;;;;;5024507;27;99391;-77
2023/01/17 09:46:21;;;;;;;10.80;3.00;;;;;;;;;;5023895;27;98155;-77
2023/01/17 09:48:56;;;;;;;8.55;3.58;;;;;;;;;;5038497;27;99053;-77
2023/01/17 09:51:25;;;;;;;9.20;2.70;;;;;;;;;;5029610;27;101828;-78
2023/01/17 09:53:52;;;;;;;10.20;2.83;;;;;;;;;;5025091;27;98261;-77
2023/01/17 09:56:22;;;;;;;5.45;2.90;;;;;;;;;;5025211;27;99876;-77
2023/01/17 09:59:01;;;;;;;8.80;3.28;;;;;;;;;;5019410;27;100587;-77
2023/01/17 10:01:46;;;;;;;6.15;2.20;;;;;;;;;;5022990;27;98348;-77
2023/01/17 10:04:30;;;;;;;8.75;2.50;;;;;;;;;;5033380;27;98745;-77
2023/01/17 10:06:56;;;;;;;4.20;2.40;;;;;;;;;;5012100;28;100178;-77
2023/01/17 10:09:29;;;;;;;8.80;2.40;;;;;;;;;;5030104;27;98712;-77
2023/01/17 10:12:04;;;;;;;9.30;2.83;;;;;;;;;;5036579;27;99462;-78
2023/01/17 10:14:40;;;;;;;10.05;2.80;;;;;;;;;;5027997;27;98913;-77
2023/01/17 10:17:25;;;;;;;8.93;3.03;;;;;;;;;;5024182;27;99534;-77
2023/01/17 10:19:51;;;;;;;8.27;2.65;;;;;;;;;;5028565;27;99602;-77
2023/01/17 10:22:18;;;;;;;5.50;2.25;;;;;;;;;;5020398;27;99286;-76
2023/01/17 10:24:50;;;;;;;3.28;2.65;;;;;;;;;;5034648;27;99363;-76
2023/01/17 10:27:22;;;;;;;5.93;2.85;;;;;;;;;;5025931;27;99219;-77
2023/01/17 10:29:49;;;;;;;16.30;3.53;;;;;;;;;;5018399;27;98352;-77
2023/01/17 10:32:16;;;;;;;9.40;3.22;;;;;;;;;;5030002;27;100264;-77
2023/01/17 10:34:46;;;;;;;5.40;2.90;;;;;;;;;;5029212;27;99555;-77
2023/01/17 10:37:20;;;;;;;3.00;2.33;;;;;;;;;;5018696;27;99395;-77
2023/01/17 10:39:47;;;;;;;5.30;2.70;;;;;;;;;;5031641;27;99554;-77
2023/01/17 10:42:25;;;;;;;16.17;3.53;;;;;;;;;;5025408;27;99325;-77
2023/01/17 10:44:57;;;;;;;4.88;2.55;;;;;;;;;;5024428;27;99229;-78
2023/01/17 10:47:26;;;;;;;4.55;2.88;;;;;;;;;;5020324;27;100462;-77
2023/01/17 10:49:55;;;;;;;11.25;2.83;;;;;;;;;;5023762;27;98348;-78
2023/01/17 10:52:57;;;;;;;9.45;3.10;;;;;;;;;;5018075;27;99347;-77
2023/01/17 10:55:29;;;;;;;9.73;2.60;;;;;;;;;;4961888;28;99315;-77
2023/01/17 10:57:57;;;;;;;16.10;3.83;;;;;;;;;;5013461;27;99666;-77
2023/01/17 11:00:42;;;;;;;5.90;2.83;;;;;;;;;;5016839;27;100012;-78
2023/01/17 11:03:12;;;;;;;9.63;3.95;;;;;;;;;;5027327;27;98373;-77
2023/01/17 11:05:40;;;;;;;7.85;4.15;;;;;;;;;;5030565;27;101093;-77
2023/01/17 11:08:07;;;;;;;5.18;3.92;;;;;;;;;;5022819;27;99930;-77
2023/01/17 11:10:36;;;;;;;5.18;3.45;;;;;;;;;;5021992;27;98614;-77
2023/01/17 11:13:04;;;;;;;11.98;4.03;;;;;;;;;;5019018;27;100020;-77
2023/01/17 11:15:33;;;;;;;5.40;3.42;;;;;;;;;;5031191;27;100232;-79
2023/01/17 11:18:01;;;;;;;8.32;4.70;;;;;;;;;;5024964;27;98416;-78
2023/01/17 11:20:38;;;;;;;17.42;4.70;;;;;;;;;;5034481;27;99177;-78
2023/01/17 11:23:10;;;;;;;6.70;3.80;;;;;;;;;;5021549;27;98768;-78
2023/01/17 11:25:36;;;;;;;9.30;5.20;;;;;;;;;;5017037;27;99679;-75
2023/01/17 11:28:05;;;;;;;9.43;4.38;;;;;;;;;;5028934;27;98798;-74
2023/01/17 11:30:32;;;;;;;6.30;4.35;;;;;;;;;;5022571;27;98266;-76
2023/01/17 11:32:59;;;;;;;6.20;4.68;;;;;;;;;;5025113;27;100483;-76
2023/01/17 11:35:27;;;;;;;5.70;4.88;;;;;;;;;;5030324;27;100804;-77
2023/01/17 11:38:12;;;;;;;9.90;5.85;;;;;;;;;;5020609;27;98642;-75
2023/01/17 11:40:39;;;;;;;12.63;6.13;;;;;;;;;;5021414;27;99697;-76
2023/01/17 11:43:11;;;;;;;9.18;5.40;;;;;;;;;;5021949;27;98308;-76
2023/01/17 11:45:38;;;;;;;6.63;5.10;;;;;;;;;;5020938;27;99699;-77
2023/01/17 11:48:07;;;;;;;11.57;5.40;;;;;;;;;;5033289;27;100130;-77
2023/01/17 11:50:36;;;;;;;12.70;5.05;;;;;;;;;;5031038;27;98245;-76
2023/01/17 11:53:04;;;;;;;9.07;4.97;;;;;;;;;;5016872;27;99084;-76
2023/01/17 11:55:30;;;;;;;9.98;5.05;;;;;;;;;;5020001;27;100217;-75
2023/01/17 11:57:57;;;;;;;11.48;6.32;;;;;;;;;;5018732;27;100076;-76
2023/01/17 12:00:30;;;;;;;8.75;5.10;;;;;;;;;;5023267;27;99518;-75
2023/01/17 12:03:12;;;;;;;9.00;4.60;;;;;;;;;;5038892;27;100113;-76
2023/01/17 12:05:50;;;;;;;9.82;5.72;;;;;;;;;;5022117;27;99748;-76
2023/01/17 12:08:24;;;;;;;7.93;4.85;;;;;;;;;;5015648;27;100037;-76
2023/01/17 12:10:51;;;;;;;13.57;4.93;;;;;;;;;;5020980;27;98884;-75
2023/01/17 12:16:31;;;;;;;5.10;4.60;;;;;;;;;;5024898;27;100034;-75
2023/01/17 12:18:58;;;;;;;7.30;4.82;;;;;;;;;;5017617;27;98521;-75
2023/01/17 12:21:33;;;;;;;12.27;4.82;;;;;;;;;;5029399;27;99586;-73
2023/01/17 12:24:17;;;;;;;4.88;4.40;;;;;;;;;;5027875;27;99662;-77
2023/01/17 12:26:49;;;;;;;5.93;3.80;;;;;;;;;;5021655;27;99662;-75
2023/01/17 12:29:33;;;;;;;4.80;3.50;;;;;;;;;;5021159;27;98983;-74
2023/01/17 12:32:00;;;;;;;3.75;3.38;;;;;;;;;;5019799;27;99318;-74
2023/01/17 12:34:28;;;;;;;6.47;3.45;;;;;;;;;;5027428;27;98839;-75
2023/01/17 12:36:57;;;;;;;5.70;3.72;;;;;;;;;;5015848;27;99181;-75
2023/01/17 12:39:27;;;;;;;4.40;2.88;;;;;;;;;;5017292;27;98392;-74
2023/01/17 12:42:12;;;;;;;5.22;2.55;;;;;;;;;;5020909;28;98594;-74
2023/01/17 12:44:56;;;;;;;3.13;2.75;;;;;;;;;;5027115;28;100300;-75
2023/01/17 12:47:23;;;;;;;7.70;2.45;;;;;;;;;;5022782;27;98262;-75
2023/01/17 12:49:52;;;;;;;4.28;2.35;;;;;;;;;;5028930;28;99882;-75
2023/01/17 12:52:22;;;;;;;4.97;1.92;;;;;;;;;;5027396;28;98422;-75
2023/01/17 12:54:50;;;;;;;5.15;2.80;;;;;;;;;;5025566;28;99509;-75
2023/01/17 12:57:19;;;;;;;3.15;2.15;;;;;;;;;;5025675;27;99187;-75
2023/01/17 12:59:46;;;;;;;2.85;2.45;;;;;;;;;;5022268;28;98769;-75
2023/01/17 13:02:32;;;;;;;8.43;3.28;;;;;;;;;;5022408;27;98783;-75
2023/01/17 13:05:17;;;;;;;3.60;2.50;;;;;;;;;;5026830;27;99393;-74
2023/01/17 13:07:43;;;;;;;3.72;2.78;;;;;;;;;;5024994;27;98934;-75
2023/01/17 13:10:27;;;;;;;3.17;2.13;;;;;;;;;;5029072;27;99558;-74
2023/01/17 13:12:58;;;;;;;6.15;2.10;;;;;;;;;;5027532;27;99292;-74
2023/01/17 13:15:27;;;;;;;7.38;2.10;;;;;;;;;;5025328;28;99505;-74
2023/01/17 13:18:08;;;;;;;5.35;2.05;;;;;;;;;;5013234;27;100143;-74
2023/01/17 13:20:41;;;;;;;3.95;2.33;;;;;;;;;;5021347;28;98311;-75
2023/01/17 13:23:11;;;;;;;3.67;2.13;;;;;;;;;;5010137;28;98595;-74
2023/01/17 13:25:44;;;;;;;2.97;2.00;;;;;;;;;;5025263;27;99903;-74
2023/01/17 13:28:15;;;;;;;3.20;1.90;;;;;;;;;;5026658;27;98402;-75
2023/01/17 13:30:53;;;;;;;1.88;1.45;;;;;;;;;;5026336;27;98584;-74
2023/01/17 13:33:20;;;;;;;1.67;1.58;;;;;;;;;;5028536;27;100129;-74
2023/01/17 13:35:46;;;;;;;4.18;1.20;;;;;;;;;;5021937;28;98821;-75
2023/01/17 13:38:15;;;;;;;2.10;1.40;;;;;;;;;;5030849;27;100436;-75
2023/01/17 13:40:48;;;;;;;3.00;1.20;;;;;;;;;;5030630;27;99765;-74
2023/01/17 13:43:20;;;;;;;2.15;1.13;;;;;;;;;;5025422;27;99295;-74
2023/01/17 13:45:51;;;;;;;3.17;1.33;;;;;;;;;;5029667;27;99334;-75
2023/01/17 13:48:17;;;;;;;1.55;1.13;;;;;;;;;;5028729;27;98669;-75
2023/01/17 13:50:45;;;;;;;7.35;1.48;;;;;;;;;;5015641;28;99421;-76
2023/01/17 13:53:44;;;;;;;4.75;1.00;;;;;;;;;;5027085;27;100421;-74
2023/01/17 13:56:26;;;;;;;2.55;1.45;;;;;;;;;;5022025;28;98391;-74
2023/01/17 13:58:54;;;;;;;3.80;1.50;;;;;;;;;;5019008;27;99022;-75
2023/01/17 14:01:20;;;;;;;3.05;0.90;;;;;;;;;;5027343;27;98655;-74
2023/01/17 14:03:52;;;;;;;1.95;1.38;;;;;;;;;;5024751;27;98642;-75
2023/01/17 14:06:35;;;;;;;6.55;1.65;;;;;;;;;;5021019;28;99526;-74
2023/01/17 14:09:07;;;;;;;2.00;1.00;;;;;;;;;;5017853;27;98371;-75
2023/01/17 14:11:34;;;;;;;2.92;1.40;;;;;;;;;;5018828;27;99543;-74
2023/01/17 14:14:19;;;;;;;1.83;1.20;;;;;;;;;;5030591;27;99495;-74
2023/01/17 14:16:46;;;;;;;3.72;1.08;;;;;;;;;;5020999;27;99114;-74
2023/01/17 14:19:23;;;;;;;2.78;1.40;;;;;;;;;;5014854;28;100004;-74
2023/01/17 14:22:10;;;;;;;4.13;1.90;;;;;;;;;;5021283;28;98337;-74
2023/01/17 14:24:54;;;;;;;1.63;1.52;;;;;;;;;;5027023;27;99388;-75
2023/01/17 14:27:22;;;;;;;2.15;1.38;;;;;;;;;;5028285;27;99873;-75
2023/01/17 14:29:57;;;;;;;6.13;1.95;;;;;;;;;;5028519;28;98100;-75
2023/01/17 14:32:35;;;;;;;1.55;1.45;;;;;;;;;;5029686;28;99518;-74
2023/01/17 14:35:02;;;;;;;2.22;2.05;;;;;;;;;;5009455;28;100097;-75
2023/01/17 14:37:31;;;;;;;2.75;1.60;;;;;;;;;;5012847;27;98341;-75
2023/01/17 14:39:59;;;;;;;1.83;1.73;;;;;;;;;;5016056;28;99444;-76
2023/01/17 14:42:27;;;;;;;4.00;1.75;;;;;;;;;;5013996;28;100481;-74
2023/01/17 14:45:05;;;;;;;1.88;1.48;;;;;;;;;;5021794;28;98684;-74
2023/01/17 14:47:33;;;;;;;4.35;1.58;;;;;;;;;;5026630;27;100824;-74
2023/01/17 14:50:09;;;;;;;2.47;1.65;;;;;;;;;;5026080;27;98275;-75
2023/01/17 14:52:35;;;;;;;2.28;1.73;;;;;;;;;;5027775;27;100158;-74
2023/01/17 14:55:13;;;;;;;4.13;1.85;;;;;;;;;;5027581;27;100386;-74
2023/01/17 14:57:39;;;;;;;7.47;1.80;;;;;;;;;;5029072;27;98249;-75
2023/01/17 15:00:09;;;;;;;1.92;1.65;;;;;;;;;;5029454;28;99876;-76
2023/01/17 15:02:41;;;;;;;2.28;2.08;;;;;;;;;;5026982;27;100343;-74
2023/01/17 15:05:10;;;;;;;4.45;2.05;;;;;;;;;;5016978;28;98145;-74
2023/01/17 15:07:36;;;;;;;2.42;1.63;;;;;;;;;;5028967;27;100228;-75
2023/01/17 15:10:03;;;;;;;6.28;2.38;;;;;;;;;;5025830;27;98254;-74
2023/01/17 15:12:29;;;;;;;4.10;2.22;;;;;;;;;;5028860;27;98975;-74
2023/01/17 15:14:57;;;;;;;3.72;2.58;;;;;;;;;;5023234;27;99878;-74
2023/01/17 15:17:23;;;;;;;3.80;2.55;;;;;;;;;;5021425;28;98381;-74
2023/01/17 15:19:52;;;;;;;3.88;1.92;;;;;;;;;;5022065;28;99675;-74
2023/01/17 15:22:19;;;;;;;6.43;2.47;;;;;;;;;;5018016;28;100046;-75
2023/01/17 15:24:46;;;;;;;2.63;2.40;;;;;;;;;;5030353;27;98315;-75
2023/01/17 15:27:13;;;;;;;3.38;2.10;;;;;;;;;;5026795;28;99954;-75
2023/01/17 15:29:40;;;;;;;5.63;2.25;;;;;;;;;;5028052;27;98216;-75
2023/01/17 15:32:15;;;;;;;2.22;2.08;;;;;;;;;;5026338;27;98660;-76
2023/01/17 15:34:43;;;;;;;10.45;2.60;;;;;;;;;;5027113;27;99927;-74
2023/01/17 15:37:31;;;;;;;2.53;2.17;;;;;;;;;;5027828;27;99358;-74
2023/01/17 15:40:03;;;;;;;2.53;2.20;;;;;;;;;;5021481;28;98737;-75
2023/01/17 15:42:33;;;;;;;4.00;2.20;;;;;;;;;;5027946;28;99888;-74
2023/01/17 15:45:01;;;;;;;7.55;2.55;;;;;;;;;;5026681;28;98410;-75
2023/01/17 15:47:30;;;;;;;7.13;3.10;;;;;;;;;;5029121;27;99349;-75
2023/01/17 15:49:57;;;;;;;5.00;2.90;;;;;;;;;;5018602;28;98315;-75
2023/01/17 15:52:23;;;;;;;5.32;2.92;;;;;;;;;;5025940;27;99701;-75
2023/01/17 15:54:57;;;;;;;7.00;3.10;;;;;;;;;;5026519;28;99957;-75
2023/01/17 15:57:28;;;;;;;6.68;2.97;;;;;;;;;;5027926;28;98288;-78
2023/01/17 16:00:07;;;;;;;3.92;2.90;;;;;;;;;;5028619;27;98482;-77
2023/01/17 16:02:34;;;;;;;4.05;3.65;;;;;;;;;;5015330;27;100049;-75
2023/01/17 16:05:19;;;;;;;5.03;3.83;;;;;;;;;;5013741;28;99274;-75
2023/01/17 16:07:47;;;;;;;5.90;3.40;;;;;;;;;;5019267;27;99775;-75
2023/01/17 16:10:14;;;;;;;11.70;3.97;;;;;;;;;;5020742;27;99619;-76
2023/01/17 16:12:41;;;;;;;4.25;3.53;;;;;;;;;;5022772;27;99223;-75
2023/01/17 16:15:08;;;;;;;4.03;3.70;;;;;;;;;;5019159;27;100178;-74
2023/01/17 16:17:44;;;;;;;3.47;3.10;;;;;;;;;;5019247;27;98398;-75